Time;durP1;ratioP1;P1;durP2;ratioP2;P2;SDS_P1;SDS_P2;PMS_P1;PMS_P2;Temp;Humidity;BMP_temperature;BMP_pressure;BME280_temperature;BME280_humidity;BME280_pressure;Samples;Min_cycle;Max_cycle;Signal;HPM_P1;HPM_P2
2021/08/11 00:00:23;;;;;;;;;;;28.90;42.40;;;;;;4361228;32;19964;-39
2021/08/11 00:02:49;;;;;;;;;;;28.90;42.60;;;;;;4374335;32;20033;-38
2021/08/11 00:05:16;;;;;;;;;;;28.80;42.70;;;;;;4375771;32;19996;-38
2021/08/11 00:07:42;;;;;;;;;;;28.80;42.90;;;;;;4375708;32;20041;-38
2021/08/11 00:10:08;;;;;;;;;;;28.80;43.20;;;;;;4375250;32;19980;-38
2021/08/11 00:12:35;;;;;;;;;;;28.80;43.50;;;;;;4375490;32;19961;-39
2021/08/11 00:15:01;;;;;;;;;;;28.80;43.70;;;;;;4375569;32;20044;-38
2021/08/11 00:17:27;;;;;;;;;;;28.80;43.90;;;;;;4375902;32;20046;-39
2021/08/11 00:19:53;;;;;;;;;;;28.70;43.90;;;;;;4375717;32;19981;-37
2021/08/11 00:22:19;;;;;;;;;;;28.80;43.80;;;;;;4375252;32;20394;-37
2021/08/11 00:24:45;;;;;;;;;;;28.80;43.70;;;;;;4361248;32;19982;-38
2021/08/11 00:27:11;;;;;;;;;;;28.80;43.50;;;;;;4375135;32;20421;-37
2021/08/11 00:29:38;;;;;;;;;;;28.80;43.40;;;;;;4375385;32;19981;-38
2021/08/11 00:32:04;;;;;;;;;;;28.90;43.40;;;;;;4375424;32;19976;-39
2021/08/11 00:34:30;;;;;;;;;;;28.90;43.50;;;;;;4375091;32;20249;-39
2021/08/11 00:36:56;;;;;;;;;;;28.90;43.50;;;;;;4375370;32;19965;-38
2021/08/11 00:39:22;;;;;;;;;;;28.90;43.60;;;;;;4373765;32;20050;-39
2021/08/11 00:41:48;;;;;;;;;;;28.80;43.70;;;;;;4375017;32;20105;-38
2021/08/11 00:44:15;;;;;;;;;;;28.80;44.50;;;;;;4361058;32;19957;-38
2021/08/11 00:46:45;;;;;;;;;;;28.70;43.80;;;;;;4375035;32;20430;-38
2021/08/11 00:49:15;;;;;;;;;;;28.70;44.10;;;;;;4375364;32;19984;-39
2021/08/11 00:51:41;;;;;;;;;;;28.70;44.20;;;;;;4374773;32;19953;-38
2021/08/11 00:54:08;;;;;;;;;;;28.60;44.20;;;;;;4374988;32;19957;-38
2021/08/11 00:56:35;;;;;;;;;;;28.50;44.30;;;;;;4374949;32;19958;-38
2021/08/11 00:59:03;;;;;;;;;;;28.50;44.40;;;;;;4360945;32;19965;-37
2021/08/11 01:01:31;;;;;;;;;;;28.50;44.50;;;;;;4370423;32;20047;-38
2021/08/11 01:03:57;;;;;;;;;;;28.40;44.60;;;;;;4360332;32;19968;-39
2021/08/11 01:06:24;;;;;;;;;;;28.40;44.80;;;;;;4360421;32;19966;-38
2021/08/11 01:08:50;;;;;;;;;;;28.30;44.80;;;;;;4360287;32;19958;-39
2021/08/11 01:11:17;;;;;;;;;;;28.30;44.90;;;;;;4359904;32;19960;-38
2021/08/11 01:13:43;;;;;;;;;;;28.20;44.90;;;;;;4372286;32;20402;-38
2021/08/11 01:16:09;;;;;;;;;;;28.20;45.00;;;;;;4360846;32;20020;-39
2021/08/11 01:18:35;;;;;;;;;;;28.20;45.00;;;;;;4374315;32;19949;-37
2021/08/11 01:21:16;;;;;;;;;;;28.10;45.00;;;;;;4374469;32;19984;-37
2021/08/11 01:24:05;;;;;;;;;;;28.10;45.10;;;;;;4374707;32;19965;-38
2021/08/11 01:26:55;;;;;;;;;;;28.10;45.10;;;;;;4360866;32;19958;-39
2021/08/11 01:29:30;;;;;;;;;;;28.10;45.20;;;;;;4360605;32;19953;-38
2021/08/11 01:32:00;;;;;;;;;;;28.00;45.10;;;;;;4361127;32;20049;-38
2021/08/11 01:34:43;;;;;;;;;;;28.00;45.20;;;;;;4360924;32;19965;-37
2021/08/11 01:37:10;;;;;;;;;;;28.00;45.20;;;;;;4374613;32;19950;-38
2021/08/11 01:39:41;;;;;;;;;;;27.90;45.20;;;;;;4360481;32;19964;-38
2021/08/11 01:42:13;;;;;;;;;;;28.00;45.30;;;;;;4360726;32;20017;-38
2021/08/11 01:44:44;;;;;;;;;;;28.00;45.30;;;;;;4356760;32;19961;-38
2021/08/11 01:47:13;;;;;;;;;;;28.00;45.30;;;;;;4357254;32;20054;-38
2021/08/11 01:49:39;;;;;;;;;;;28.00;45.20;;;;;;4357277;32;19977;-37
2021/08/11 01:52:05;;;;;;;;;;;28.00;45.20;;;;;;4344596;32;19973;-38
2021/08/11 01:54:35;;;;;;;;;;;28.10;45.20;;;;;;4356638;32;20373;-38
2021/08/11 01:57:03;;;;;;;;;;;28.10;45.10;;;;;;4356999;32;19969;-38
2021/08/11 01:59:30;;;;;;;;;;;28.10;45.00;;;;;;4356961;32;20085;-38
2021/08/11 02:01:56;;;;;;;;;;;28.20;45.00;;;;;;4351725;32;19986;-38
2021/08/11 02:04:22;;;;;;;;;;;28.20;44.90;;;;;;4356748;32;20425;-38
2021/08/11 02:06:48;;;;;;;;;;;28.30;44.80;;;;;;4341346;33;19962;-38
2021/08/11 02:09:16;;;;;;;;;;;28.40;44.70;;;;;;4341446;32;19966;-38
2021/08/11 02:11:42;;;;;;;;;;;28.50;44.50;;;;;;4316856;33;19973;-38
2021/08/11 02:14:09;;;;;;;;;;;28.50;44.30;;;;;;4341606;33;19997;-38
2021/08/11 02:16:43;;;;;;;;;;;28.70;44.20;;;;;;4341776;33;19970;-38
2021/08/11 02:19:09;;;;;;;;;;;28.80;44.00;;;;;;4329835;33;20529;-38
2021/08/11 02:21:37;;;;;;;;;;;28.80;43.80;;;;;;4341494;33;19966;-38
2021/08/11 02:24:03;;;;;;;;;;;28.90;43.60;;;;;;4341571;33;20524;-39
2021/08/11 02:26:39;;;;;;;;;;;29.00;43.50;;;;;;4329336;33;19968;-39
2021/08/11 02:29:25;;;;;;;;;;;29.10;43.40;;;;;;4341619;33;19969;-38
2021/08/11 02:32:10;;;;;;;;;;;29.20;43.20;;;;;;4341061;33;19969;-37
2021/08/11 02:34:53;;;;;;;;;;;29.40;43.00;;;;;;4340992;33;20441;-36
2021/08/11 02:37:26;;;;;;;;;;;29.50;42.70;;;;;;4341368;33;21070;-37
2021/08/11 02:40:13;;;;;;;;;;;29.80;42.30;;;;;;4329760;33;20562;-38
2021/08/11 02:42:42;;;;;;;;;;;30.00;42.00;;;;;;4340967;33;20456;-38
2021/08/11 02:45:11;;;;;;;;;;;30.20;41.60;;;;;;4329843;33;20029;-38
2021/08/11 02:47:38;;;;;;;;;;;30.50;41.30;;;;;;4330051;33;20047;-38
2021/08/11 02:50:05;;;;;;;;;;;30.70;41.00;;;;;;4317902;33;20065;-39
2021/08/11 02:52:31;;;;;;;;;;;31.00;40.70;;;;;;4329720;33;19970;-38
2021/08/11 02:54:58;;;;;;;;;;;31.20;40.00;;;;;;4343501;33;19969;-37
2021/08/11 02:57:24;;;;;;;;;;;31.40;39.90;;;;;;4317678;33;19989;-37
2021/08/11 02:59:50;;;;;;;;;;;31.70;39.40;;;;;;4329498;33;19981;-38
2021/08/11 03:02:16;;;;;;;;;;;31.90;38.90;;;;;;4338972;32;20406;-37
2021/08/11 03:04:42;;;;;;;;;;;32.00;38.40;;;;;;4345053;32;19965;-38
2021/08/11 03:07:09;;;;;;;;;;;32.20;38.00;;;;;;4344584;32;19970;-39
2021/08/11 03:09:36;;;;;;;;;;;32.30;37.70;;;;;;4358513;32;20038;-37
2021/08/11 03:12:05;;;;;;;;;;;32.40;37.50;;;;;;4346550;32;19957;-36
2021/08/11 03:14:31;;;;;;;;;;;32.50;37.40;;;;;;4360048;32;19969;-37
2021/08/11 03:16:58;;;;;;;;;;;32.60;37.40;;;;;;4358878;32;19957;-37
2021/08/11 03:19:24;;;;;;;;;;;32.70;36.90;;;;;;4373019;32;19977;-38
2021/08/11 03:21:50;;;;;;;;;;;32.80;36.80;;;;;;4359640;32;20007;-38
2021/08/11 03:24:18;;;;;;;;;;;32.90;36.70;;;;;;4375856;32;19973;-38
2021/08/11 03:26:44;;;;;;;;;;;33.00;36.70;;;;;;4362477;32;19969;-37
2021/08/11 03:29:10;;;;;;;;;;;33.10;36.80;;;;;;4376212;32;19950;-37
2021/08/11 03:31:37;;;;;;;;;;;33.20;36.60;;;;;;4375830;32;19964;-37
2021/08/11 03:34:03;;;;;;;;;;;33.30;36.30;;;;;;4376110;32;19950;-37
2021/08/11 03:36:29;;;;;;;;;;;33.50;36.20;;;;;;4361866;32;19985;-38
2021/08/11 03:38:55;;;;;;;;;;;33.70;35.90;;;;;;4376100;32;19957;-39
2021/08/11 03:41:21;;;;;;;;;;;33.80;35.40;;;;;;4376120;32;20044;-37
2021/08/11 03:43:48;;;;;;;;;;;33.90;35.30;;;;;;4376155;32;20126;-37
2021/08/11 03:46:14;;;;;;;;;;;34.00;35.30;;;;;;4361949;32;20089;-37
2021/08/11 03:48:40;;;;;;;;;;;34.20;35.10;;;;;;4376114;32;19954;-39
2021/08/11 03:51:06;;;;;;;;;;;34.30;35.10;;;;;;4375899;32;20410;-37
2021/08/11 03:53:32;;;;;;;;;;;34.50;34.90;;;;;;4376339;32;20036;-37
2021/08/11 03:55:59;;;;;;;;;;;34.70;34.80;;;;;;4375686;32;20375;-38
2021/08/11 03:58:25;;;;;;;;;;;34.80;34.30;;;;;;4375537;32;20066;-38
2021/08/11 04:00:51;;;;;;;;;;;34.90;34.20;;;;;;4374935;32;19969;-38
2021/08/11 04:03:18;;;;;;;;;;;35.10;34.00;;;;;;4360876;32;20094;-38
2021/08/11 04:05:44;;;;;;;;;;;35.20;33.80;;;;;;4360463;32;19977;-38
2021/08/11 04:08:11;;;;;;;;;;;35.30;33.50;;;;;;4346655;32;19957;-38
2021/08/11 04:10:37;;;;;;;;;;;35.30;33.30;;;;;;4360945;32;19957;-36
2021/08/11 04:13:04;;;;;;;;;;;35.30;33.30;;;;;;4360969;32;19969;-37
2021/08/11 04:15:30;;;;;;;;;;;35.40;33.20;;;;;;4360235;32;19958;-39
2021/08/11 04:17:56;;;;;;;;;;;35.50;33.20;;;;;;4360455;32;19996;-37
2021/08/11 04:20:23;;;;;;;;;;;35.50;33.10;;;;;;4346930;32;20037;-37
2021/08/11 04:22:49;;;;;;;;;;;35.60;33.00;;;;;;4360274;32;19971;-38
2021/08/11 04:25:15;;;;;;;;;;;35.70;33.00;;;;;;4360388;32;19946;-38
2021/08/11 04:27:43;;;;;;;;;;;35.90;32.90;;;;;;4360339;32;19962;-38
2021/08/11 04:30:10;;;;;;;;;;;36.00;32.30;;;;;;4360496;32;19977;-37
2021/08/11 04:32:36;;;;;;;;;;;36.10;32.30;;;;;;4360271;32;19966;-38
2021/08/11 04:35:07;;;;;;;;;;;36.20;32.40;;;;;;4346440;32;19969;-37
2021/08/11 04:37:35;;;;;;;;;;;36.40;32.30;;;;;;4360103;32;19961;-38
2021/08/11 04:40:04;;;;;;;;;;;36.70;32.20;;;;;;4360199;32;19965;-37
2021/08/11 04:42:30;;;;;;;;;;;37.10;32.20;;;;;;4360427;32;20057;-38
2021/08/11 04:44:56;;;;;;;;;;;37.50;32.00;;;;;;4359796;32;20377;-38
2021/08/11 04:47:22;;;;;;;;;;;38.00;31.50;;;;;;4360065;32;19961;-38
2021/08/11 04:49:48;;;;;;;;;;;38.30;30.70;;;;;;4360079;32;20431;-38
2021/08/11 04:52:15;;;;;;;;;;;38.70;30.60;;;;;;4358258;32;19976;-38
2021/08/11 04:54:41;;;;;;;;;;;39.10;30.00;;;;;;4359466;32;19957;-39
2021/08/11 04:57:07;;;;;;;;;;;39.40;29.70;;;;;;4360131;32;19954;-39
2021/08/11 04:59:33;;;;;;;;;;;39.40;29.40;;;;;;4360162;32;19957;-38
2021/08/11 05:01:59;;;;;;;;;;;39.50;29.60;;;;;;4359335;32;20434;-38
2021/08/11 05:04:26;;;;;;;;;;;39.80;29.70;;;;;;4359856;32;20406;-38
2021/08/11 05:06:52;;;;;;;;;;;40.00;29.60;;;;;;4359817;32;19950;-37
2021/08/11 05:09:18;;;;;;;;;;;40.40;29.30;;;;;;4360041;32;20350;-38
2021/08/11 05:11:45;;;;;;;;;;;40.70;29.10;;;;;;4359656;32;19981;-38
2021/08/11 05:14:11;;;;;;;;;;;40.80;28.10;;;;;;4374446;32;19957;-38
2021/08/11 05:16:37;;;;;;;;;;;41.00;28.40;;;;;;4375242;32;19965;-38
2021/08/11 05:19:03;;;;;;;;;;;41.20;28.00;;;;;;4374216;32;19953;-38
2021/08/11 05:21:30;;;;;;;;;;;41.20;27.40;;;;;;4374325;32;19950;-38
2021/08/11 05:23:56;;;;;;;;;;;41.10;27.20;;;;;;4360736;32;20041;-38
2021/08/11 05:26:22;;;;;;;;;;;41.00;27.40;;;;;;4374343;32;19980;-39
2021/08/11 05:28:49;;;;;;;;;;;41.10;27.70;;;;;;4360040;32;20128;-38
2021/08/11 05:31:16;;;;;;;;;;;41.20;27.80;;;;;;4374127;32;19993;-38
2021/08/11 05:33:42;;;;;;;;;;;41.50;27.80;;;;;;4374186;32;20434;-39
2021/08/11 05:36:08;;;;;;;;;;;41.90;27.80;;;;;;4374535;32;20017;-38
2021/08/11 05:38:36;;;;;;;;;;;42.20;26.70;;;;;;4374497;32;19983;-37
2021/08/11 05:41:03;;;;;;;;;;;42.50;26.50;;;;;;4374124;32;20122;-38
2021/08/11 05:43:29;;;;;;;;;;;42.80;26.50;;;;;;4374131;32;19953;-39
2021/08/11 05:45:55;;;;;;;;;;;43.00;25.90;;;;;;4373641;32;19953;-39
2021/08/11 05:48:24;;;;;;;;;;;43.20;25.80;;;;;;4374071;32;19964;-39
2021/08/11 05:50:50;;;;;;;;;;;43.30;25.90;;;;;;4374175;32;19966;-38
2021/08/11 05:53:17;;;;;;;;;;;43.40;26.00;;;;;;4374100;32;19964;-39
2021/08/11 05:55:43;;;;;;;;;;;43.40;25.70;;;;;;4374015;32;19961;-40
2021/08/11 05:58:11;;;;;;;;;;;43.20;25.10;;;;;;4329692;33;19966;-39
2021/08/11 06:00:37;;;;;;;;;;;42.80;25.30;;;;;;4341346;33;19974;-38
2021/08/11 06:03:04;;;;;;;;;;;42.50;25.70;;;;;;4341505;33;20359;-39
2021/08/11 06:05:30;;;;;;;;;;;42.40;26.00;;;;;;4341674;33;20406;-38
2021/08/11 06:07:56;;;;;;;;;;;42.50;26.00;;;;;;4341609;33;20062;-37
2021/08/11 06:10:23;;;;;;;;;;;42.60;25.80;;;;;;4341306;33;19965;-39
2021/08/11 06:12:52;;;;;;;;;;;42.80;25.60;;;;;;4341254;33;20427;-39
2021/08/11 06:15:19;;;;;;;;;;;43.00;25.50;;;;;;4341661;33;20426;-38
2021/08/11 06:17:46;;;;;;;;;;;43.40;25.60;;;;;;4341812;33;19977;-39
2021/08/11 06:20:13;;;;;;;;;;;43.50;25.50;;;;;;4341655;33;20449;-39
2021/08/11 06:22:40;;;;;;;;;;;43.50;25.20;;;;;;4340775;33;20403;-38
2021/08/11 06:25:07;;;;;;;;;;;43.60;25.10;;;;;;4341046;33;20083;-39
2021/08/11 06:27:33;;;;;;;;;;;43.50;25.00;;;;;;4341145;33;20057;-39
2021/08/11 06:29:59;;;;;;;;;;;43.60;25.30;;;;;;4311116;33;19990;-38
2021/08/11 06:32:26;;;;;;;;;;;43.50;25.10;;;;;;4311608;33;19959;-39
2021/08/11 06:34:52;;;;;;;;;;;43.50;25.10;;;;;;4311825;33;20410;-39
2021/08/11 06:37:18;;;;;;;;;;;43.40;25.30;;;;;;4311493;33;19979;-39
2021/08/11 06:39:45;;;;;;;;;;;43.50;25.40;;;;;;4312262;33;19978;-38
2021/08/11 06:42:11;;;;;;;;;;;43.40;25.00;;;;;;4311770;33;19959;-39
2021/08/11 06:44:37;;;;;;;;;;;43.50;25.10;;;;;;4311745;33;19985;-38
2021/08/11 06:47:03;;;;;;;;;;;43.50;25.20;;;;;;4311768;33;19975;-40
2021/08/11 06:49:29;;;;;;;;;;;43.50;25.10;;;;;;4311793;33;20388;-37
2021/08/11 06:51:56;;;;;;;;;;;43.60;24.90;;;;;;4312006;33;20524;-37
2021/08/11 06:54:22;;;;;;;;;;;43.70;25.00;;;;;;4311747;33;20450;-42
2021/08/11 06:56:48;;;;;;;;;;;43.70;24.80;;;;;;4311464;33;20818;-39
2021/08/11 06:59:14;;;;;;;;;;;43.70;24.80;;;;;;4311683;33;19970;-38
2021/08/11 07:01:41;;;;;;;;;;;43.70;24.70;;;;;;4311420;33;19985;-38
2021/08/11 07:04:07;;;;;;;;;;;43.60;24.70;;;;;;4299246;33;19981;-39
2021/08/11 07:06:33;;;;;;;;;;;43.40;24.70;;;;;;4315444;33;20486;-38
2021/08/11 07:08:59;;;;;;;;;;;43.40;24.90;;;;;;4342972;32;19978;-40
2021/08/11 07:11:25;;;;;;;;;;;43.20;24.70;;;;;;4358050;32;19961;-39
2021/08/11 07:13:52;;;;;;;;;;;43.00;24.80;;;;;;4371157;32;20413;-38
2021/08/11 07:16:18;;;;;;;;;;;42.80;24.90;;;;;;4373185;32;19965;-38
2021/08/11 07:18:44;;;;;;;;;;;42.60;24.90;;;;;;4373365;32;19973;-39
2021/08/11 07:21:10;;;;;;;;;;;42.50;25.10;;;;;;4373357;32;20038;-39
2021/08/11 07:23:36;;;;;;;;;;;42.40;25.10;;;;;;4373359;32;19972;-39
2021/08/11 07:26:03;;;;;;;;;;;42.30;25.10;;;;;;4373140;32;19968;-39
2021/08/11 07:28:29;;;;;;;;;;;42.20;25.30;;;;;;4372971;32;19988;-40
2021/08/11 07:30:55;;;;;;;;;;;42.20;25.30;;;;;;4358700;32;19965;-39
2021/08/11 07:33:24;;;;;;;;;;;42.10;25.30;;;;;;4372572;32;19954;-39
2021/08/11 07:35:50;;;;;;;;;;;42.10;25.40;;;;;;4372979;32;19968;-40
2021/08/11 07:38:17;;;;;;;;;;;42.10;25.40;;;;;;4373150;32;20479;-40
2021/08/11 07:40:43;;;;;;;;;;;42.10;25.40;;;;;;4372769;32;19957;-38
2021/08/11 07:43:09;;;;;;;;;;;42.20;25.50;;;;;;4372952;32;20025;-39
2021/08/11 07:45:36;;;;;;;;;;;42.20;25.40;;;;;;4373066;32;19969;-39
2021/08/11 07:48:03;;;;;;;;;;;42.30;25.40;;;;;;4373074;32;19989;-39
2021/08/11 07:50:32;;;;;;;;;;;42.40;25.30;;;;;;4359141;32;19969;-39
2021/08/11 07:52:58;;;;;;;;;;;42.50;25.30;;;;;;4372646;32;20081;-39
2021/08/11 07:55:25;;;;;;;;;;;42.60;25.40;;;;;;4373059;32;20492;-38
2021/08/11 07:57:51;;;;;;;;;;;42.60;25.20;;;;;;4358782;32;20357;-38
2021/08/11 08:00:19;;;;;;;;;;;42.60;25.20;;;;;;4373164;32;19957;-38
2021/08/11 08:02:45;;;;;;;;;;;42.50;25.70;;;;;;4360254;32;19968;-39
2021/08/11 08:05:11;;;;;;;;;;;42.50;25.20;;;;;;4358158;32;19981;-39
2021/08/11 08:07:38;;;;;;;;;;;42.30;25.30;;;;;;4357709;32;19978;-39
2021/08/11 08:10:05;;;;;;;;;;;42.20;25.30;;;;;;4361049;32;19966;-40
2021/08/11 08:12:31;;;;;;;;;;;42.20;25.30;;;;;;4360624;32;19982;-39
2021/08/11 08:14:57;;;;;;;;;;;42.40;25.40;;;;;;4360402;32;20029;-40
2021/08/11 08:17:23;;;;;;;;;;;42.50;25.40;;;;;;4360689;32;19954;-39
2021/08/11 08:19:50;;;;;;;;;;;42.70;25.20;;;;;;4360787;32;19964;-38
2021/08/11 08:22:17;;;;;;;;;;;42.80;25.10;;;;;;4360622;32;19964;-40
2021/08/11 08:24:43;;;;;;;;;;;43.00;24.90;;;;;;4360396;32;20433;-39
2021/08/11 08:27:09;;;;;;;;;;;42.90;24.70;;;;;;4360345;32;20001;-39
2021/08/11 08:29:36;;;;;;;;;;;43.00;24.80;;;;;;4360066;32;20439;-39
2021/08/11 08:32:02;;;;;;;;;;;43.10;24.90;;;;;;4360315;32;19961;-39
2021/08/11 08:34:28;;;;;;;;;;;43.20;24.90;;;;;;4360358;32;19972;-38
2021/08/11 08:36:55;;;;;;;;;;;43.40;24.80;;;;;;4360014;32;20413;-38
2021/08/11 08:39:21;;;;;;;;;;;43.60;24.70;;;;;;4360033;32;19973;-39
2021/08/11 08:41:47;;;;;;;;;;;43.50;24.40;;;;;;4360247;32;20378;-40
2021/08/11 08:44:14;;;;;;;;;;;43.50;24.30;;;;;;4345945;32;20475;-40
2021/08/11 08:46:41;;;;;;;;;;;43.50;24.40;;;;;;4359930;32;20378;-38
2021/08/11 08:49:08;;;;;;;;;;;43.60;24.50;;;;;;4346283;32;20484;-39
2021/08/11 08:51:38;;;;;;;;;;;43.80;24.50;;;;;;4346170;32;19960;-39
2021/08/11 08:54:05;;;;;;;;;;;44.10;24.30;;;;;;4346291;32;19976;-39
2021/08/11 08:56:32;;;;;;;;;;;44.30;24.20;;;;;;4359967;32;20042;-39
2021/08/11 08:58:58;;;;;;;;;;;44.40;24.00;;;;;;4359830;32;19969;-40
2021/08/11 09:01:24;;;;;;;;;;;44.40;23.80;;;;;;4350498;32;20065;-39
2021/08/11 09:03:50;;;;;;;;;;;44.40;23.90;;;;;;4374753;32;20489;-39
2021/08/11 09:06:16;;;;;;;;;;;44.20;23.70;;;;;;4360566;32;19965;-39
2021/08/11 09:09:10;;;;;;;;;;;44.00;23.80;;;;;;4374830;32;20385;-39
2021/08/11 09:11:42;;;;;;;;;;;43.90;23.90;;;;;;4372839;32;20054;-39
2021/08/11 09:14:20;;;;;;;;;;;43.80;24.10;;;;;;4374745;32;19986;-39
2021/08/11 09:16:48;;;;;;;;;;;43.60;24.10;;;;;;4342031;33;19977;-38
2021/08/11 09:19:15;;;;;;;;;;;43.50;24.20;;;;;;4330152;33;20414;-39
2021/08/11 09:21:55;;;;;;;;;;;43.30;24.30;;;;;;4341940;33;19954;-39
2021/08/11 09:24:21;;;;;;;;;;;43.20;24.40;;;;;;4331880;33;20033;-39
2021/08/11 09:26:47;;;;;;;;;;;43.10;24.40;;;;;;4329600;33;20378;-39
2021/08/11 09:29:15;;;;;;;;;;;43.10;24.40;;;;;;4329475;33;19972;-40
2021/08/11 09:31:41;;;;;;;;;;;43.00;24.50;;;;;;4342239;33;19962;-39
2021/08/11 09:34:10;;;;;;;;;;;42.90;24.40;;;;;;4317438;33;20399;-40
2021/08/11 09:36:49;;;;;;;;;;;42.90;24.50;;;;;;4341960;33;19965;-39
2021/08/11 09:39:16;;;;;;;;;;;42.90;24.60;;;;;;4341906;33;20508;-40
2021/08/11 09:42:04;;;;;;;;;;;43.00;24.60;;;;;;4342273;33;19981;-39
2021/08/11 09:44:31;;;;;;;;;;;43.10;24.70;;;;;;4341863;33;19978;-39
2021/08/11 09:47:18;;;;;;;;;;;43.40;24.60;;;;;;4326756;33;19977;-39
2021/08/11 09:50:02;;;;;;;;;;;43.60;24.20;;;;;;4326782;33;20410;-39
2021/08/11 09:52:51;;;;;;;;;;;43.70;24.20;;;;;;4326945;33;19978;-39
2021/08/11 09:55:17;;;;;;;;;;;43.80;24.20;;;;;;4340830;33;19993;-40
2021/08/11 09:57:46;;;;;;;;;;;43.90;24.10;;;;;;4341817;33;19969;-39
2021/08/11 10:00:14;;;;;;;;;;;44.00;23.90;;;;;;4341557;33;19961;-40
2021/08/11 10:02:44;;;;;;;;;;;44.10;23.90;;;;;;4317972;33;19978;-38
2021/08/11 10:05:33;;;;;;;;;;;44.10;23.90;;;;;;4326961;33;19954;-38
2021/08/11 10:08:00;;;;;;;;;;;44.00;23.90;;;;;;4297133;33;20510;-39
2021/08/11 10:10:26;;;;;;;;;;;44.00;23.70;;;;;;4297721;33;19967;-39
2021/08/11 10:12:52;;;;;;;;;;;44.00;23.80;;;;;;4304100;33;19967;-39
2021/08/11 10:15:19;;;;;;;;;;;44.00;24.00;;;;;;4300133;33;19987;-38
2021/08/11 10:17:46;;;;;;;;;;;44.20;24.00;;;;;;4312195;33;19981;-38
2021/08/11 10:20:13;;;;;;;;;;;44.50;24.00;;;;;;4300169;33;19962;-38
2021/08/11 10:22:39;;;;;;;;;;;44.80;23.90;;;;;;4312143;33;19970;-38
2021/08/11 10:25:06;;;;;;;;;;;45.20;23.70;;;;;;4323835;33;19989;-38
2021/08/11 10:27:33;;;;;;;;;;;45.60;23.60;;;;;;4326734;33;20041;-39
2021/08/11 10:30:00;;;;;;;;;;;45.80;23.50;;;;;;4314336;33;20562;-40
2021/08/11 10:32:26;;;;;;;;;;;45.90;23.50;;;;;;4326422;33;20034;-39
2021/08/11 10:34:54;;;;;;;;;;;46.00;23.40;;;;;;4326257;33;19968;-39
2021/08/11 10:37:23;;;;;;;;;;;46.10;23.30;;;;;;4326685;33;20002;-38
2021/08/11 10:39:51;;;;;;;;;;;46.00;22.70;;;;;;4326277;33;19978;-38
2021/08/11 10:42:18;;;;;;;;;;;46.00;23.00;;;;;;4326036;33;19978;-38
2021/08/11 10:44:45;;;;;;;;;;;45.90;23.00;;;;;;4333049;32;19961;-37
2021/08/11 10:47:11;;;;;;;;;;;45.60;22.80;;;;;;4344801;32;19957;-37
2021/08/11 10:49:54;;;;;;;;;;;45.50;23.00;;;;;;4358203;32;19961;-37
2021/08/11 10:52:20;;;;;;;;;;;45.20;23.00;;;;;;4358378;32;19969;-38
2021/08/11 10:54:57;;;;;;;;;;;45.00;23.10;;;;;;4358206;32;19966;-38
2021/08/11 10:57:38;;;;;;;;;;;44.90;23.40;;;;;;4358581;32;20443;-38
2021/08/11 11:00:09;;;;;;;;;;;44.70;23.30;;;;;;4358341;32;19981;-38
2021/08/11 11:02:41;;;;;;;;;;;44.60;23.30;;;;;;4346836;32;19967;-39
2021/08/11 11:05:08;;;;;;;;;;;44.50;23.50;;;;;;4343291;33;19958;-39
2021/08/11 11:07:35;;;;;;;;;;;44.30;23.40;;;;;;4343199;33;20049;-38
2021/08/11 11:10:24;;;;;;;;;;;44.20;23.50;;;;;;4329950;33;20062;-38
2021/08/11 11:12:50;;;;;;;;;;;44.10;23.60;;;;;;4349628;32;19958;-38
2021/08/11 11:15:16;;;;;;;;;;;43.90;23.50;;;;;;4343895;32;20044;-38
2021/08/11 11:18:11;;;;;;;;;;;43.80;23.70;;;;;;4332188;32;19973;-38
2021/08/11 11:20:37;;;;;;;;;;;43.60;23.70;;;;;;4358503;32;19961;-39
2021/08/11 11:23:05;;;;;;;;;;;43.40;23.70;;;;;;4344219;32;20013;-38
2021/08/11 11:26:10;;;;;;;;;;;43.40;23.90;;;;;;4358143;32;19977;-38
2021/08/11 11:28:52;;;;;;;;;;;43.50;24.00;;;;;;4326120;33;19982;-38
2021/08/11 11:31:37;;;;;;;;;;;43.70;23.90;;;;;;4325961;33;19979;-37
2021/08/11 11:34:18;;;;;;;;;;;43.90;23.90;;;;;;4325844;33;20125;-38
2021/08/11 11:36:57;;;;;;;;;;;43.90;23.80;;;;;;4326196;33;20009;-38
2021/08/11 11:39:27;;;;;;;;;;;43.80;24.20;;;;;;4326355;33;19998;-38
2021/08/11 11:42:11;;;;;;;;;;;43.60;23.60;;;;;;4325925;33;19986;-38
2021/08/11 11:44:57;;;;;;;;;;;43.60;23.70;;;;;;4328636;33;20041;-38
2021/08/11 11:47:35;;;;;;;;;;;43.60;23.70;;;;;;4328848;33;20399;-38
2021/08/11 11:50:22;;;;;;;;;;;43.70;23.80;;;;;;4329097;33;19967;-38
2021/08/11 11:52:49;;;;;;;;;;;43.50;23.60;;;;;;4328682;33;20058;-38
2021/08/11 11:55:39;;;;;;;;;;;43.40;23.60;;;;;;4328602;33;20002;-38
2021/08/11 11:58:07;;;;;;;;;;;43.30;23.70;;;;;;4318376;33;20419;-38
2021/08/11 12:00:33;;;;;;;;;;;43.30;23.80;;;;;;4329033;33;20054;-38
2021/08/11 12:02:59;;;;;;;;;;;43.20;23.80;;;;;;4354268;32;19993;-39
2021/08/11 12:05:26;;;;;;;;;;;43.20;23.80;;;;;;4360476;32;19992;-39
2021/08/11 12:07:52;;;;;;;;;;;43.10;23.80;;;;;;4360280;32;20034;-39
2021/08/11 12:10:25;;;;;;;;;;;43.00;23.90;;;;;;4360439;32;19970;-38
2021/08/11 12:13:02;;;;;;;;;;;43.00;23.90;;;;;;4360286;32;19965;-39
2021/08/11 12:15:29;;;;;;;;;;;43.20;24.10;;;;;;4360525;32;20408;-39
2021/08/11 12:17:57;;;;;;;;;;;43.20;24.00;;;;;;4360444;32;20001;-39
2021/08/11 12:20:27;;;;;;;;;;;43.40;23.80;;;;;;4346896;32;19961;-37
2021/08/11 12:22:53;;;;;;;;;;;43.40;23.70;;;;;;4360451;32;20057;-38
2021/08/11 12:25:23;;;;;;;;;;;43.40;23.70;;;;;;4346901;32;20055;-39
2021/08/11 12:28:20;;;;;;;;;;;43.40;23.60;;;;;;4360721;32;20035;-39
2021/08/11 12:31:00;;;;;;;;;;;43.20;23.70;;;;;;4360574;32;19970;-37
2021/08/11 12:33:27;;;;;;;;;;;43.00;23.70;;;;;;4360201;32;19957;-38
2021/08/11 12:35:54;;;;;;;;;;;42.90;23.90;;;;;;4359829;32;19996;-38
2021/08/11 12:38:36;;;;;;;;;;;42.80;23.90;;;;;;4346525;32;19981;-38
2021/08/11 12:41:19;;;;;;;;;;;42.60;24.00;;;;;;4360700;32;19974;-40
2021/08/11 12:43:50;;;;;;;;;;;42.60;24.10;;;;;;4360058;32;20351;-38
2021/08/11 12:46:17;;;;;;;;;;;42.50;24.10;;;;;;4360000;32;19970;-38
2021/08/11 12:48:43;;;;;;;;;;;42.40;24.10;;;;;;4360269;32;20034;-37
2021/08/11 12:51:24;;;;;;;;;;;42.20;24.10;;;;;;4360373;32;19954;-40
2021/08/11 12:54:04;;;;;;;;;;;42.10;24.20;;;;;;4359803;32;20366;-39
2021/08/11 12:56:30;;;;;;;;;;;41.90;24.30;;;;;;4346521;32;20379;-37
2021/08/11 12:59:03;;;;;;;;;;;41.90;24.40;;;;;;4360048;32;20028;-39
2021/08/11 13:01:40;;;;;;;;;;;41.90;24.50;;;;;;4359890;32;19954;-38
2021/08/11 13:04:14;;;;;;;;;;;41.80;24.40;;;;;;4370618;32;20051;-37
2021/08/11 13:06:42;;;;;;;;;;;41.80;24.30;;;;;;4359715;32;19976;-39
2021/08/11 13:09:28;;;;;;;;;;;41.80;24.40;;;;;;4359649;32;20458;-39
2021/08/11 13:11:55;;;;;;;;;;;41.70;24.40;;;;;;4360278;32;19973;-39
2021/08/11 13:14:50;;;;;;;;;;;41.60;24.40;;;;;;4374485;32;19953;-39
2021/08/11 13:17:27;;;;;;;;;;;41.50;24.40;;;;;;4374796;32;19968;-39
2021/08/11 13:20:19;;;;;;;;;;;41.50;24.50;;;;;;4374531;32;19965;-38
2021/08/11 13:22:52;;;;;;;;;;;41.40;24.60;;;;;;4374448;32;19954;-38
2021/08/11 13:25:19;;;;;;;;;;;41.40;24.50;;;;;;4374197;32;19972;-37
2021/08/11 13:27:47;;;;;;;;;;;41.40;24.60;;;;;;4374689;32;20404;-38
2021/08/11 13:30:14;;;;;;;;;;;41.30;24.60;;;;;;4373238;32;19965;-38
2021/08/11 13:32:41;;;;;;;;;;;41.20;24.50;;;;;;4374588;32;19981;-38
2021/08/11 13:35:07;;;;;;;;;;;41.10;24.60;;;;;;4374544;32;19972;-37
2021/08/11 13:37:34;;;;;;;;;;;41.10;24.60;;;;;;4374400;32;19996;-38
2021/08/11 13:40:02;;;;;;;;;;;41.00;24.60;;;;;;4374026;32;19992;-38
2021/08/11 13:42:28;;;;;;;;;;;40.90;24.60;;;;;;4374428;32;20386;-38
2021/08/11 13:44:54;;;;;;;;;;;40.80;24.60;;;;;;4373760;32;20065;-38
2021/08/11 13:47:21;;;;;;;;;;;40.70;24.70;;;;;;4373496;32;19957;-39
2021/08/11 13:49:48;;;;;;;;;;;40.60;24.70;;;;;;4373734;32;19973;-37
2021/08/11 13:52:15;;;;;;;;;;;40.50;24.60;;;;;;4373659;32;19957;-39
2021/08/11 13:54:41;;;;;;;;;;;40.40;24.70;;;;;;4374316;32;20486;-39
2021/08/11 13:57:07;;;;;;;;;;;40.30;24.90;;;;;;4373771;32;20059;-38
2021/08/11 13:59:33;;;;;;;;;;;40.30;24.90;;;;;;4373842;32;19966;-39
2021/08/11 14:02:00;;;;;;;;;;;40.10;24.90;;;;;;4373515;32;20053;-38
2021/08/11 14:04:26;;;;;;;;;;;40.10;25.00;;;;;;4373865;32;20122;-38
2021/08/11 14:06:53;;;;;;;;;;;40.00;25.50;;;;;;4373078;32;20000;-39
2021/08/11 14:09:20;;;;;;;;;;;39.90;24.90;;;;;;4360044;32;20042;-38
2021/08/11 14:11:46;;;;;;;;;;;39.80;24.80;;;;;;4373466;32;20018;-38
2021/08/11 14:14:12;;;;;;;;;;;39.80;24.90;;;;;;4373749;32;19968;-39
2021/08/11 14:16:38;;;;;;;;;;;39.60;24.90;;;;;;4340848;33;20138;-39
2021/08/11 14:19:05;;;;;;;;;;;39.40;24.90;;;;;;4341378;33;19960;-39
2021/08/11 14:21:32;;;;;;;;;;;39.30;24.90;;;;;;4341185;33;19970;-38
2021/08/11 14:23:58;;;;;;;;;;;39.20;25.00;;;;;;4341262;33;20044;-39
2021/08/11 14:26:25;;;;;;;;;;;39.10;25.00;;;;;;4341588;33;20093;-38